Time;durP1;ratioP1;P1;durP2;ratioP2;P2;SDS_P1;SDS_P2;PMS_P1;PMS_P2;Temp;Humidity;BMP_temperature;BMP_pressure;BME280_temperature;BME280_humidity;BME280_pressure;Samples;Min_cycle;Max_cycle;Signal;HPM_P1;HPM_P2
2023/06/25 00:02:00;;;;;;;12.98;8.77;;;18.80;99.90;;;;;;5051812;28;20106;-65
2023/06/25 00:04:26;;;;;;;11.00;8.35;;;18.80;99.90;;;;;;5037466;28;20541;-65
2023/06/25 00:06:51;;;;;;;10.90;8.13;;;18.80;99.90;;;;;;5037732;28;20041;-65
2023/06/25 00:09:17;;;;;;;11.07;8.55;;;18.70;99.90;;;;;;5020510;28;20055;-65
2023/06/25 00:11:43;;;;;;;10.00;7.22;;;18.70;99.90;;;;;;5055561;28;20041;-65
2023/06/25 00:14:08;;;;;;;12.85;9.05;;;18.70;99.90;;;;;;5037913;28;20044;-65
2023/06/25 00:16:34;;;;;;;12.98;9.38;;;18.60;99.90;;;;;;5036923;28;20056;-65
2023/06/25 00:19:00;;;;;;;17.55;10.73;;;18.60;99.90;;;;;;5037459;28;20102;-65
2023/06/25 00:21:27;;;;;;;15.32;9.73;;;18.60;99.90;;;;;;5037539;28;20398;-65
2023/06/25 00:23:52;;;;;;;14.27;10.50;;;18.60;99.90;;;;;;5054581;28;20048;-65
2023/06/25 00:26:18;;;;;;;10.57;8.32;;;18.50;99.90;;;;;;5041947;28;20037;-65
2023/06/25 00:28:44;;;;;;;14.70;11.07;;;18.50;99.90;;;;;;5037250;28;20080;-65
2023/06/25 00:31:12;;;;;;;17.30;10.75;;;18.50;99.90;;;;;;5037076;28;20132;-65
2023/06/25 00:33:38;;;;;;;12.82;10.07;;;18.50;99.90;;;;;;5041615;28;20041;-65
2023/06/25 00:36:08;;;;;;;13.77;10.75;;;18.40;99.90;;;;;;5020684;28;20078;-65
2023/06/25 00:38:37;;;;;;;14.43;10.38;;;18.40;99.90;;;;;;5036231;28;20041;-65
2023/06/25 00:41:03;;;;;;;13.55;9.95;;;18.40;99.90;;;;;;5037124;28;20486;-65
2023/06/25 00:43:29;;;;;;;12.10;9.35;;;18.30;99.90;;;;;;5020768;28;20379;-65
2023/06/25 00:45:55;;;;;;;13.73;10.32;;;18.30;99.90;;;;;;5036069;28;20128;-65
2023/06/25 00:48:21;;;;;;;11.93;8.98;;;18.20;99.90;;;;;;5020670;28;20123;-65
2023/06/25 00:50:47;;;;;;;12.23;8.95;;;18.20;99.90;;;;;;5020730;28;20044;-65
2023/06/25 00:53:13;;;;;;;16.40;11.05;;;18.20;99.90;;;;;;5036245;28;20037;-65
2023/06/25 00:55:39;;;;;;;14.70;11.32;;;18.20;99.90;;;;;;5054790;28;20379;-65
2023/06/25 00:58:05;;;;;;;17.83;10.90;;;18.20;99.90;;;;;;5056572;28;20063;-65
2023/06/25 01:00:33;;;;;;;14.93;11.40;;;18.20;99.90;;;;;;5073435;28;20072;-65
2023/06/25 01:03:05;;;;;;;16.55;10.55;;;18.20;99.90;;;;;;5056884;28;20071;-65
2023/06/25 01:05:39;;;;;;;15.77;11.48;;;18.20;99.90;;;;;;5056154;28;20185;-65
2023/06/25 01:08:09;;;;;;;15.30;12.90;;;18.20;99.90;;;;;;5044003;28;20402;-65
2023/06/25 01:10:38;;;;;;;14.90;11.20;;;18.20;99.90;;;;;;5036725;28;20080;-65
2023/06/25 01:13:05;;;;;;;15.25;11.05;;;18.20;99.90;;;;;;5053219;28;20080;-65
2023/06/25 01:15:31;;;;;;;19.25;12.23;;;18.20;99.90;;;;;;5054134;28;20482;-65
2023/06/25 01:17:59;;;;;;;14.85;11.75;;;18.20;99.90;;;;;;5036550;28;20444;-65
2023/06/25 01:20:27;;;;;;;16.25;12.70;;;18.20;99.90;;;;;;5035588;28;20044;-65
2023/06/25 01:22:57;;;;;;;14.90;11.85;;;18.10;99.90;;;;;;5054287;28;20036;-65
2023/06/25 01:25:24;;;;;;;16.30;12.32;;;18.10;99.90;;;;;;5053855;28;20029;-65
2023/06/25 01:27:50;;;;;;;16.10;11.68;;;18.10;99.90;;;;;;5035332;28;20049;-65
2023/06/25 01:30:17;;;;;;;15.55;10.88;;;18.10;99.90;;;;;;5019712;28;20076;-65
2023/06/25 01:32:44;;;;;;;15.10;11.45;;;18.10;99.90;;;;;;5036077;28;20081;-65
2023/06/25 01:35:14;;;;;;;15.40;11.05;;;18.10;99.90;;;;;;5035655;28;20051;-65
2023/06/25 01:37:41;;;;;;;14.43;11.75;;;18.10;99.90;;;;;;5053995;28;20033;-65
2023/06/25 01:40:10;;;;;;;15.68;11.40;;;18.10;99.90;;;;;;5036236;28;20402;-65
2023/06/25 01:42:36;;;;;;;14.98;11.15;;;18.10;99.90;;;;;;5035394;28;20075;-65
2023/06/25 01:45:02;;;;;;;15.98;12.65;;;18.00;99.90;;;;;;5053975;28;20406;-65
2023/06/25 01:47:28;;;;;;;17.30;12.85;;;18.00;99.90;;;;;;5034997;28;20041;-65
2023/06/25 01:49:54;;;;;;;17.80;13.18;;;18.00;99.90;;;;;;5053740;28;20033;-65
2023/06/25 01:52:20;;;;;;;17.90;12.85;;;18.00;99.90;;;;;;5036065;28;20175;-65
2023/06/25 01:54:46;;;;;;;15.63;11.65;;;18.00;99.90;;;;;;5034688;28;20155;-65
2023/06/25 01:57:12;;;;;;;16.98;12.52;;;17.90;99.90;;;;;;5053915;28;20427;-65
2023/06/25 01:59:37;;;;;;;15.27;11.90;;;17.90;99.90;;;;;;5053531;28;20045;-65
2023/06/25 02:02:03;;;;;;;14.25;11.80;;;17.90;99.90;;;;;;5052686;28;20077;-65
2023/06/25 02:04:29;;;;;;;17.10;12.70;;;17.80;99.90;;;;;;5053432;28;20112;-65
2023/06/25 02:06:55;;;;;;;17.13;12.30;;;17.80;99.90;;;;;;5035432;28;20120;-65
2023/06/25 02:09:21;;;;;;;18.50;14.43;;;17.80;99.90;;;;;;5052434;28;20040;-65
2023/06/25 02:11:47;;;;;;;17.65;13.75;;;17.80;99.90;;;;;;5035506;28;20045;-65
2023/06/25 02:14:12;;;;;;;17.55;13.13;;;17.80;99.90;;;;;;5035719;28;20041;-65
2023/06/25 02:16:38;;;;;;;17.27;12.90;;;17.80;99.90;;;;;;5034718;28;20059;-65
2023/06/25 02:19:04;;;;;;;16.60;12.60;;;17.80;99.90;;;;;;5035423;28;20040;-65
2023/06/25 02:21:30;;;;;;;17.35;12.52;;;17.70;99.90;;;;;;5053136;28;20068;-65
2023/06/25 02:23:55;;;;;;;17.35;12.25;;;17.70;99.90;;;;;;5051891;28;20033;-65
2023/06/25 02:26:21;;;;;;;16.08;13.63;;;17.70;99.90;;;;;;5052627;28;20037;-65
2023/06/25 02:28:47;;;;;;;17.40;13.07;;;17.70;99.90;;;;;;5034925;28;20080;-65
2023/06/25 02:31:12;;;;;;;18.90;11.30;;;17.70;99.90;;;;;;5052206;28;20060;-65
2023/06/25 02:33:38;;;;;;;15.20;12.30;;;17.70;99.90;;;;;;5053260;28;20048;-65
2023/06/25 02:36:04;;;;;;;18.38;13.73;;;17.60;99.90;;;;;;5035305;28;20436;-65
2023/06/25 02:38:30;;;;;;;18.00;12.98;;;17.60;99.90;;;;;;5051813;28;20071;-65
2023/06/25 02:40:55;;;;;;;16.45;13.25;;;17.60;99.90;;;;;;5052620;28;20065;-65
2023/06/25 02:43:21;;;;;;;16.92;13.07;;;17.60;99.90;;;;;;5052898;28;20041;-65
2023/06/25 02:45:47;;;;;;;17.55;13.50;;;17.50;99.90;;;;;;5051871;28;20033;-65
2023/06/25 02:48:12;;;;;;;17.35;13.60;;;17.50;99.90;;;;;;5035127;28;20084;-65
2023/06/25 02:50:38;;;;;;;18.63;15.43;;;17.50;99.90;;;;;;5035267;28;20045;-65
2023/06/25 02:53:03;;;;;;;17.48;14.18;;;17.50;99.90;;;;;;5051558;28;20041;-65
2023/06/25 02:55:29;;;;;;;16.30;14.05;;;17.50;99.90;;;;;;5052630;28;20036;-65
2023/06/25 02:57:56;;;;;;;18.30;14.20;;;17.50;99.90;;;;;;5034003;28;20124;-65
2023/06/25 03:00:22;;;;;;;17.88;14.00;;;17.50;99.90;;;;;;5034715;28;20053;-65
2023/06/25 03:02:47;;;;;;;17.52;14.05;;;17.40;99.90;;;;;;5034533;28;20048;-65
2023/06/25 03:05:13;;;;;;;20.05;14.68;;;17.40;99.90;;;;;;5035573;28;20037;-65
2023/06/25 03:07:55;;;;;;;18.27;14.55;;;17.40;99.90;;;;;;5034654;28;20064;-65
2023/06/25 03:10:28;;;;;;;18.63;14.10;;;17.40;99.90;;;;;;5034409;28;20045;-65
2023/06/25 03:12:54;;;;;;;18.20;12.85;;;17.40;99.90;;;;;;5051266;28;20459;-65
2023/06/25 03:15:19;;;;;;;20.65;14.77;;;17.40;99.90;;;;;;5052242;28;20116;-65
2023/06/25 03:17:45;;;;;;;17.63;13.90;;;17.40;99.90;;;;;;5052061;28;20102;-65
2023/06/25 03:20:12;;;;;;;21.15;13.90;;;17.30;99.90;;;;;;5017132;28;20045;-65
2023/06/25 03:22:37;;;;;;;18.20;14.52;;;17.40;99.90;;;;;;5017893;28;20541;-66
2023/06/25 03:25:03;;;;;;;18.83;14.38;;;17.30;99.90;;;;;;5034459;28;20120;-65
2023/06/25 03:27:33;;;;;;;20.73;13.68;;;17.30;99.90;;;;;;5051128;28;20041;-64
2023/06/25 03:29:59;;;;;;;19.05;14.43;;;17.40;99.90;;;;;;5051896;28;20052;-65
2023/06/25 03:32:25;;;;;;;19.08;14.50;;;17.30;99.90;;;;;;5034113;28;20041;-65
2023/06/25 03:34:51;;;;;;;18.83;14.50;;;17.30;99.90;;;;;;5033075;28;20035;-65
2023/06/25 03:37:16;;;;;;;17.80;14.35;;;17.30;99.90;;;;;;5034014;28;20134;-65
2023/06/25 03:39:42;;;;;;;20.88;14.00;;;17.30;99.90;;;;;;5017511;28;20033;-65
2023/06/25 03:42:08;;;;;;;19.17;15.10;;;17.30;99.90;;;;;;5033636;28;20371;-65
2023/06/25 03:44:33;;;;;;;19.02;14.18;;;17.30;99.90;;;;;;5042439;28;20118;-65
2023/06/25 03:47:00;;;;;;;17.90;13.57;;;17.30;99.90;;;;;;5053015;28;20610;-65
2023/06/25 03:49:26;;;;;;;19.13;15.15;;;17.30;99.90;;;;;;5050487;28;20112;-65
2023/06/25 03:51:51;;;;;;;18.08;13.02;;;17.30;99.90;;;;;;5038462;28;20148;-65
2023/06/25 03:54:17;;;;;;;19.20;13.82;;;17.30;99.90;;;;;;5052881;28;20397;-65
2023/06/25 03:56:43;;;;;;;17.60;14.07;;;17.30;99.90;;;;;;5053918;28;20041;-65
2023/06/25 03:59:08;;;;;;;19.20;14.82;;;17.40;99.90;;;;;;5054108;28;20112;-65
2023/06/25 04:01:34;;;;;;;18.27;15.30;;;17.40;99.90;;;;;;5052998;28;20048;-65
2023/06/25 04:04:00;;;;;;;19.73;15.60;;;17.40;99.90;;;;;;5047160;28;20047;-65
2023/06/25 04:06:25;;;;;;;18.98;14.73;;;17.40;99.90;;;;;;5033748;28;20116;-65
2023/06/25 04:08:51;;;;;;;19.45;14.45;;;17.40;99.90;;;;;;5032691;28;20101;-65
2023/06/25 04:11:17;;;;;;;17.50;13.30;;;17.40;99.90;;;;;;5051580;28;20041;-65
2023/06/25 04:13:42;;;;;;;16.98;13.75;;;17.50;99.90;;;;;;5033805;28;20383;-65
2023/06/25 04:16:09;;;;;;;16.13;11.88;;;17.50;99.90;;;;;;5050826;28;20045;-65
2023/06/25 04:18:37;;;;;;;14.52;11.05;;;17.50;99.90;;;;;;5051336;28;20051;-65
2023/06/25 04:21:04;;;;;;;17.02;13.38;;;17.50;99.90;;;;;;5033692;28;20076;-65
2023/06/25 04:23:30;;;;;;;18.05;14.35;;;17.60;99.90;;;;;;5050789;28;20041;-65
2023/06/25 04:25:55;;;;;;;17.58;12.32;;;17.60;99.90;;;;;;5051281;28;20033;-65
2023/06/25 04:28:21;;;;;;;17.83;15.15;;;17.70;99.90;;;;;;5051446;28;20045;-65
2023/06/25 04:30:47;;;;;;;19.98;14.38;;;17.70;99.90;;;;;;5032751;28;20060;-65
2023/06/25 04:33:12;;;;;;;17.42;13.45;;;17.70;99.90;;;;;;5024578;28;20139;-65
2023/06/25 04:35:38;;;;;;;20.33;13.95;;;17.70;99.90;;;;;;5071724;28;20055;-65
2023/06/25 04:38:04;;;;;;;19.20;13.73;;;17.70;99.90;;;;;;5070452;28;20072;-65
2023/06/25 04:40:30;;;;;;;19.00;12.48;;;17.80;99.90;;;;;;5053434;28;20079;-65
2023/06/25 04:42:56;;;;;;;17.95;14.15;;;17.80;99.90;;;;;;5071427;28;20079;-65
2023/06/25 04:45:21;;;;;;;17.40;13.18;;;17.80;99.90;;;;;;5070518;28;20064;-65
2023/06/25 04:47:47;;;;;;;17.27;13.82;;;17.80;99.90;;;;;;5037399;28;20052;-65
2023/06/25 04:50:13;;;;;;;17.00;13.55;;;17.90;99.90;;;;;;5057025;28;20523;-65
2023/06/25 04:52:39;;;;;;;16.88;14.02;;;17.90;99.90;;;;;;5056469;28;20436;-65
2023/06/25 04:55:05;;;;;;;18.13;13.23;;;18.00;99.90;;;;;;5057262;28;20066;-65
2023/06/25 04:57:31;;;;;;;16.25;12.32;;;18.00;99.90;;;;;;5055569;28;20103;-65
2023/06/25 04:59:57;;;;;;;17.35;13.45;;;18.10;99.90;;;;;;5036753;28;20049;-65
2023/06/25 05:02:23;;;;;;;16.65;12.25;;;18.20;99.90;;;;;;5036921;28;20045;-65
2023/06/25 05:04:49;;;;;;;14.13;11.73;;;18.30;99.90;;;;;;5072063;28;20567;-65
2023/06/25 05:07:14;;;;;;;17.25;12.93;;;18.30;99.90;;;;;;5074414;28;20071;-65
2023/06/25 05:09:40;;;;;;;16.83;13.07;;;18.40;99.90;;;;;;5056553;28;20079;-65
2023/06/25 05:12:06;;;;;;;16.92;11.75;;;18.50;99.90;;;;;;5073970;28;20114;-65
2023/06/25 05:14:31;;;;;;;14.57;10.90;;;18.60;99.90;;;;;;5074425;28;20036;-65
2023/06/25 05:16:57;;;;;;;14.60;10.90;;;18.80;99.90;;;;;;5056397;28;20051;-65
2023/06/25 05:19:23;;;;;;;14.30;10.57;;;18.90;99.90;;;;;;5055381;28;20043;-65
2023/06/25 05:21:48;;;;;;;15.55;12.10;;;19.00;99.90;;;;;;5074283;28;20040;-65
2023/06/25 05:24:14;;;;;;;15.05;10.35;;;19.10;99.90;;;;;;5056312;28;20037;-65
2023/06/25 05:26:40;;;;;;;16.10;10.68;;;19.20;99.90;;;;;;5073441;28;20039;-65
2023/06/25 05:29:05;;;;;;;13.40;10.00;;;19.40;99.90;;;;;;5061541;28;20056;-65
2023/06/25 05:31:31;;;;;;;16.88;10.32;;;19.50;99.90;;;;;;5053935;28;20056;-65
2023/06/25 05:33:57;;;;;;;14.70;9.98;;;19.60;99.90;;;;;;5035702;28;20051;-65
2023/06/25 05:36:23;;;;;;;14.13;9.60;;;19.70;99.90;;;;;;5054679;28;20063;-65
2023/06/25 05:38:49;;;;;;;13.48;9.23;;;19.80;99.90;;;;;;5053713;28;20044;-65
2023/06/25 05:41:14;;;;;;;12.23;9.50;;;19.90;99.90;;;;;;5035223;28;20040;-65
2023/06/25 05:43:40;;;;;;;13.18;9.10;;;20.00;99.90;;;;;;5035908;28;20157;-65
2023/06/25 05:46:11;;;;;;;15.73;10.07;;;20.10;99.90;;;;;;5036155;28;20041;-65
2023/06/25 05:48:40;;;;;;;12.57;8.52;;;20.20;99.90;;;;;;5035082;28;20094;-65
2023/06/25 05:51:06;;;;;;;11.95;9.00;;;20.20;99.90;;;;;;5036145;28;20072;-66
2023/06/25 05:53:40;;;;;;;17.77;9.35;;;20.40;99.90;;;;;;5053624;28;20040;-65
2023/06/25 05:56:06;;;;;;;14.00;8.75;;;20.50;99.90;;;;;;5036074;28;20047;-65
2023/06/25 05:58:34;;;;;;;12.23;8.93;;;20.60;99.90;;;;;;5035634;28;20048;-66
2023/06/25 06:00:59;;;;;;;11.13;7.40;;;20.70;99.90;;;;;;5050189;28;20560;-65
2023/06/25 06:03:25;;;;;;;14.07;8.55;;;20.80;99.90;;;;;;5041462;28;20087;-65
2023/06/25 06:05:51;;;;;;;12.82;9.30;;;20.90;99.90;;;;;;5035421;28;20044;-65
2023/06/25 06:08:16;;;;;;;10.10;7.10;;;21.00;99.90;;;;;;5052631;28;20037;-65
2023/06/25 06:10:42;;;;;;;9.25;7.40;;;21.00;99.90;;;;;;5035666;28;20462;-65
2023/06/25 06:13:07;;;;;;;13.23;7.50;;;21.10;99.90;;;;;;5053483;28;20405;-65
2023/06/25 06:15:33;;;;;;;10.20;6.88;;;21.20;99.90;;;;;;5052107;28;20033;-65
2023/06/25 06:17:59;;;;;;;10.80;6.82;;;21.30;99.90;;;;;;5053010;28;20041;-65
2023/06/25 06:20:24;;;;;;;9.60;7.28;;;21.50;99.90;;;;;;5052923;28;20041;-65
2023/06/25 06:22:50;;;;;;;11.63;6.63;;;21.60;99.90;;;;;;5034306;28;20045;-65
2023/06/25 06:25:16;;;;;;;10.77;7.07;;;21.70;99.90;;;;;;5052973;28;20037;-65
2023/06/25 06:27:41;;;;;;;11.15;6.47;;;21.80;99.90;;;;;;5035989;28;20115;-65
2023/06/25 06:30:07;;;;;;;10.48;6.88;;;21.90;99.90;;;;;;5052131;28;20053;-65
2023/06/25 06:32:33;;;;;;;9.43;6.35;;;22.00;99.90;;;;;;5035295;28;20134;-65
2023/06/25 06:34:59;;;;;;;9.52;5.82;;;22.10;99.90;;;;;;5036373;28;20506;-65
2023/06/25 06:37:24;;;;;;;9.85;6.93;;;22.20;99.90;;;;;;5052028;28;20116;-65
2023/06/25 06:39:50;;;;;;;9.55;6.43;;;22.30;99.90;;;;;;5044009;28;20481;-65
2023/06/25 06:42:16;;;;;;;8.30;6.55;;;22.30;99.90;;;;;;5054775;28;20063;-65
2023/06/25 06:44:41;;;;;;;11.00;7.05;;;22.40;99.90;;;;;;5049938;28;20090;-65
2023/06/25 06:47:07;;;;;;;9.50;6.25;;;22.50;99.90;;;;;;5052783;28;20041;-65
2023/06/25 06:49:33;;;;;;;10.23;6.00;;;22.60;99.90;;;;;;5036020;28;20049;-64
2023/06/25 06:51:58;;;;;;;8.65;6.63;;;22.70;99.90;;;;;;5045429;28;20052;-65
2023/06/25 06:54:24;;;;;;;9.48;6.85;;;22.80;99.90;;;;;;5072428;28;20098;-65
2023/06/25 06:56:50;;;;;;;9.77;7.30;;;22.90;99.90;;;;;;5054277;28;20437;-65
2023/06/25 06:59:16;;;;;;;9.13;6.90;;;22.90;99.90;;;;;;5027568;28;20029;-65
2023/06/25 07:01:42;;;;;;;11.90;7.38;;;23.00;99.90;;;;;;5038194;28;20118;-65
2023/06/25 07:04:07;;;;;;;10.02;7.00;;;23.10;99.90;;;;;;5031791;28;20047;-65
2023/06/25 07:06:33;;;;;;;9.95;6.70;;;23.20;99.90;;;;;;5033642;28;20068;-65
2023/06/25 07:09:00;;;;;;;9.93;7.25;;;23.30;99.90;;;;;;5015527;28;20036;-65
2023/06/25 07:11:26;;;;;;;10.35;7.00;;;23.40;99.90;;;;;;5030510;28;20056;-65
2023/06/25 07:13:51;;;;;;;11.65;8.68;;;23.50;99.90;;;;;;5069830;28;20040;-66
2023/06/25 07:16:17;;;;;;;11.00;7.88;;;23.60;99.90;;;;;;5035499;28;20358;-65
2023/06/25 07:18:43;;;;;;;10.30;7.60;;;23.70;99.90;;;;;;5041321;28;20048;-65
2023/06/25 07:21:09;;;;;;;11.88;7.70;;;23.80;99.90;;;;;;5046203;28;20808;-65
2023/06/25 07:23:36;;;;;;;11.30;8.32;;;23.80;99.90;;;;;;5044421;28;20106;-65
2023/06/25 07:26:03;;;;;;;10.15;8.32;;;23.90;99.90;;;;;;5040972;28;20045;-65
2023/06/25 07:28:29;;;;;;;10.95;8.35;;;24.00;99.90;;;;;;5033959;28;20051;-64
2023/06/25 07:30:54;;;;;;;9.55;8.13;;;24.10;99.90;;;;;;5051503;28;20526;-65
2023/06/25 07:33:20;;;;;;;11.00;9.23;;;24.10;99.90;;;;;;5022231;28;20090;-64
2023/06/25 07:35:46;;;;;;;11.23;9.18;;;24.30;99.90;;;;;;5032738;28;20041;-65
2023/06/25 07:38:11;;;;;;;14.10;8.27;;;24.30;99.90;;;;;;5050064;28;20033;-64
2023/06/25 07:40:37;;;;;;;11.52;9.10;;;24.40;99.90;;;;;;5050641;28;20040;-64
2023/06/25 07:43:03;;;;;;;11.38;8.93;;;24.40;99.90;;;;;;5050959;28;20036;-64
2023/06/25 07:45:29;;;;;;;10.52;8.77;;;24.50;99.90;;;;;;5065439;28;20040;-65
2023/06/25 07:47:55;;;;;;;12.65;9.15;;;24.60;99.90;;;;;;5064333;28;20495;-65
2023/06/25 07:50:21;;;;;;;10.93;8.95;;;24.70;99.90;;;;;;5068307;28;20047;-64
2023/06/25 07:52:47;;;;;;;10.73;8.82;;;24.70;99.90;;;;;;5050626;28;20127;-66
2023/06/25 07:55:14;;;;;;;11.55;9.77;;;24.80;99.90;;;;;;5062806;28;20101;-64
2023/06/25 07:57:40;;;;;;;14.18;10.00;;;24.80;99.90;;;;;;5027476;28;20045;-65
2023/06/25 08:00:18;;;;;;;14.65;9.18;;;24.80;99.90;;;;;;5050274;28;20071;-64
2023/06/25 08:02:43;;;;;;;10.05;9.05;;;24.90;99.90;;;;;;5026587;28;20470;-65
2023/06/25 08:05:10;;;;;;;11.45;9.43;;;25.00;99.90;;;;;;5031177;28;20068;-64
2023/06/25 08:07:36;;;;;;;11.73;9.77;;;25.10;99.90;;;;;;5026401;28;20543;-64
2023/06/25 08:10:02;;;;;;;13.15;10.93;;;25.20;99.90;;;;;;5047214;28;20124;-64
2023/06/25 08:12:28;;;;;;;11.65;9.77;;;25.30;99.90;;;;;;5032504;28;20451;-64
2023/06/25 08:14:53;;;;;;;10.55;9.18;;;25.30;99.90;;;;;;5048553;28;20045;-64
2023/06/25 08:17:19;;;;;;;10.45;9.15;;;25.40;99.90;;;;;;5059942;28;20039;-64
2023/06/25 08:19:45;;;;;;;10.55;8.75;;;25.50;99.90;;;;;;5070602;28;20036;-64
2023/06/25 08:22:10;;;;;;;10.60;9.20;;;25.60;99.90;;;;;;5053385;28;20040;-64
2023/06/25 08:24:36;;;;;;;11.70;9.32;;;25.60;99.90;;;;;;5088461;28;20051;-64
2023/06/25 08:27:02;;;;;;;13.88;9.65;;;25.60;99.90;;;;;;5068813;28;20952;-64
2023/06/25 08:29:27;;;;;;;11.13;9.88;;;25.60;99.90;;;;;;5071542;28;20139;-64
2023/06/25 08:31:53;;;;;;;10.85;9.25;;;25.80;99.90;;;;;;5049002;28;20040;-65
2023/06/25 08:34:19;;;;;;;11.05;8.82;;;25.90;99.90;;;;;;5037264;28;20048;-65
2023/06/25 08:36:44;;;;;;;10.90;8.25;;;26.00;99.90;;;;;;5067443;28;20083;-65
2023/06/25 08:39:10;;;;;;;11.50;7.53;;;26.10;99.90;;;;;;5059447;28;20097;-65
2023/06/25 08:41:36;;;;;;;8.60;7.68;;;26.20;99.90;;;;;;5054246;28;20070;-65
2023/06/25 08:44:02;;;;;;;9.85;7.57;;;26.40;99.90;;;;;;5047398;28;20113;-66
2023/06/25 08:46:29;;;;;;;9.00;8.10;;;26.40;99.90;;;;;;5062056;28;20045;-64
2023/06/25 08:48:55;;;;;;;9.15;8.18;;;26.40;99.90;;;;;;5053690;28;20059;-65
2023/06/25 08:51:25;;;;;;;8.98;7.18;;;26.40;99.90;;;;;;5036566;28;20469;-65
2023/06/25 08:53:51;;;;;;;8.43;6.95;;;26.50;99.80;;;;;;5057146;28;20048;-64
2023/06/25 08:56:17;;;;;;;9.73;7.80;;;26.70;99.10;;;;;;5074327;28;20040;-64
2023/06/25 08:58:43;;;;;;;10.70;8.35;;;26.80;98.90;;;;;;5085655;28;20554;-65
2023/06/25 09:01:12;;;;;;;10.40;6.75;;;26.90;98.50;;;;;;5034113;28;20044;-64
2023/06/25 09:03:42;;;;;;;8.98;7.63;;;26.90;97.80;;;;;;5034279;28;20466;-65
2023/06/25 09:06:15;;;;;;;9.00;6.75;;;27.00;97.90;;;;;;5067749;28;20398;-64
2023/06/25 09:08:45;;;;;;;8.15;6.57;;;27.00;96.50;;;;;;5034324;28;20037;-64
2023/06/25 09:11:11;;;;;;;9.38;6.88;;;27.00;96.40;;;;;;5051477;28;20044;-65
2023/06/25 09:13:39;;;;;;;11.57;6.93;;;27.10;96.30;;;;;;5051994;28;20041;-65
2023/06/25 09:16:09;;;;;;;10.07;6.60;;;27.20;95.90;;;;;;5057989;28;20513;-65
2023/06/25 09:18:36;;;;;;;8.27;5.97;;;27.30;94.60;;;;;;5069835;28;20047;-65
2023/06/25 09:21:09;;;;;;;7.15;5.97;;;27.40;94.60;;;;;;5035340;28;20051;-65
2023/06/25 09:23:38;;;;;;;7.70;5.75;;;27.50;94.20;;;;;;5017988;28;20758;-65
2023/06/25 09:26:09;;;;;;;10.18;6.97;;;27.60;94.40;;;;;;5050740;28;20047;-65
2023/06/25 09:28:47;;;;;;;8.98;6.18;;;27.50;93.40;;;;;;5046160;28;20398;-65
2023/06/25 09:31:17;;;;;;;13.25;6.13;;;27.50;93.60;;;;;;5032178;28;20054;-65
2023/06/25 09:33:52;;;;;;;7.97;5.32;;;27.40;93.00;;;;;;5034048;28;20041;-65
2023/06/25 09:36:17;;;;;;;8.00;5.68;;;27.30;92.20;;;;;;5031230;28;20394;-65
2023/06/25 09:38:45;;;;;;;6.93;5.22;;;27.40;91.60;;;;;;5030908;28;20045;-65
2023/06/25 09:41:14;;;;;;;6.35;4.55;;;27.40;91.50;;;;;;5031943;28;20050;-65
2023/06/25 09:43:42;;;;;;;7.13;5.40;;;27.50;91.20;;;;;;5037472;28;20115;-65
2023/06/25 09:46:08;;;;;;;8.15;5.63;;;27.60;90.90;;;;;;5050362;28;20129;-65
2023/06/25 09:48:34;;;;;;;7.22;4.70;;;27.70;90.70;;;;;;5032729;28;20600;-65
2023/06/25 09:51:02;;;;;;;7.70;5.20;;;27.70;90.20;;;;;;5032175;28;20055;-65
2023/06/25 09:53:31;;;;;;;7.38;5.30;;;27.80;90.30;;;;;;5032005;28;20033;-65
2023/06/25 09:55:57;;;;;;;7.50;5.30;;;27.90;89.80;;;;;;5048135;28;20133;-65
2023/06/25 09:58:24;;;;;;;6.93;5.13;;;28.00;89.30;;;;;;5028438;28;20056;-64
2023/06/25 10:00:50;;;;;;;8.23;4.88;;;28.10;88.60;;;;;;5039266;28;20112;-65
2023/06/25 10:03:17;;;;;;;7.75;5.63;;;28.10;88.00;;;;;;5033116;28;20037;-65
2023/06/25 10:05:43;;;;;;;8.30;5.40;;;28.20;86.90;;;;;;5046565;28;20071;-65
2023/06/25 10:08:10;;;;;;;8.10;5.80;;;28.20;86.30;;;;;;5048401;28;20171;-65
2023/06/25 10:10:36;;;;;;;6.72;5.05;;;28.30;86.00;;;;;;5045283;28;20477;-65
2023/06/25 10:13:05;;;;;;;6.90;4.65;;;28.40;86.20;;;;;;5049161;28;20128;-65
2023/06/25 10:15:36;;;;;;;7.45;5.60;;;28.40;85.60;;;;;;5047472;28;20229;-64
2023/06/25 10:18:04;;;;;;;8.18;5.07;;;28.30;84.60;;;;;;5039409;28;20068;-66
2023/06/25 10:20:35;;;;;;;9.30;5.35;;;28.20;84.50;;;;;;5029415;28;20037;-65
2023/06/25 10:23:09;;;;;;;7.68;5.55;;;28.20;84.80;;;;;;5047399;28;20040;-65
2023/06/25 10:25:37;;;;;;;6.97;5.13;;;28.40;85.30;;;;;;5048681;28;20174;-65
2023/06/25 10:28:18;;;;;;;6.95;4.72;;;28.50;84.20;;;;;;5055660;28;20052;-65
2023/06/25 10:30:48;;;;;;;9.13;5.63;;;28.60;83.00;;;;;;5069928;28;20063;-65
2023/06/25 10:33:18;;;;;;;7.60;5.13;;;28.70;83.50;;;;;;5069253;28;20033;-65
2023/06/25 10:35:47;;;;;;;7.47;4.93;;;28.70;83.50;;;;;;5034765;28;20045;-65
2023/06/25 10:38:13;;;;;;;7.88;4.95;;;28.80;82.30;;;;;;5015575;28;20057;-65
2023/06/25 10:40:40;;;;;;;6.50;4.85;;;28.90;82.70;;;;;;5015149;28;20444;-65
2023/06/25 10:43:06;;;;;;;7.43;4.60;;;29.00;81.10;;;;;;5033703;28;20165;-65
2023/06/25 10:45:33;;;;;;;6.55;4.63;;;28.90;80.70;;;;;;5030622;28;20128;-65
2023/06/25 10:48:12;;;;;;;8.10;5.47;;;29.00;81.00;;;;;;5031109;28;20055;-65
2023/06/25 10:50:37;;;;;;;8.20;5.32;;;29.00;80.20;;;;;;5037914;28;20047;-64
2023/06/25 10:53:15;;;;;;;7.50;4.70;;;29.00;80.80;;;;;;5028730;28;20498;-65
2023/06/25 10:55:48;;;;;;;7.97;5.13;;;29.10;79.90;;;;;;5012275;28;20088;-65
2023/06/25 10:58:19;;;;;;;8.10;4.97;;;29.20;79.10;;;;;;4993386;28;20053;-65
2023/06/25 11:00:45;;;;;;;7.90;5.32;;;29.30;80.10;;;;;;5029088;28;20068;-65
2023/06/25 11:03:12;;;;;;;8.48;5.25;;;29.30;79.50;;;;;;5031469;28;20041;-65
2023/06/25 11:05:39;;;;;;;6.53;4.65;;;29.40;79.10;;;;;;5051414;28;20032;-65
2023/06/25 11:08:07;;;;;;;6.70;4.63;;;29.50;78.80;;;;;;5032366;28;20049;-65
2023/06/25 11:10:36;;;;;;;6.97;5.15;;;29.50;77.30;;;;;;5027610;28;20049;-65
2023/06/25 11:13:02;;;;;;;6.97;5.25;;;29.50;76.60;;;;;;5048464;28;20624;-65
2023/06/25 11:15:32;;;;;;;8.85;4.47;;;29.60;76.90;;;;;;5049057;28;20428;-65
2023/06/25 11:17:59;;;;;;;6.95;4.70;;;29.70;76.30;;;;;;5029069;28;20051;-65
2023/06/25 11:20:25;;;;;;;7.20;4.55;;;29.60;76.00;;;;;;5049532;28;20041;-65
2023/06/25 11:22:51;;;;;;;6.18;4.65;;;29.70;75.50;;;;;;5024770;28;20041;-65
2023/06/25 11:25:21;;;;;;;6.38;4.07;;;29.80;74.90;;;;;;5042877;28;20121;-65
2023/06/25 11:27:50;;;;;;;6.57;4.68;;;29.90;75.20;;;;;;5048955;28;20119;-65
2023/06/25 11:30:16;;;;;;;7.22;4.13;;;29.80;74.60;;;;;;5065578;28;20053;-65
2023/06/25 11:32:42;;;;;;;6.35;4.75;;;29.80;74.20;;;;;;5049717;28;20051;-65
2023/06/25 11:35:10;;;;;;;6.55;4.78;;;29.80;74.00;;;;;;5069011;28;20445;-65
2023/06/25 11:37:56;;;;;;;7.32;4.47;;;29.80;73.00;;;;;;5067693;28;20076;-65
2023/06/25 11:40:30;;;;;;;7.50;3.90;;;29.90;74.30;;;;;;5067415;28;20051;-65
2023/06/25 11:42:56;;;;;;;7.35;3.88;;;30.00;71.30;;;;;;5067630;28;20045;-65
2023/06/25 11:45:22;;;;;;;7.15;3.95;;;30.00;71.40;;;;;;5064847;28;20101;-65
2023/06/25 11:47:50;;;;;;;5.70;3.67;;;30.00;70.00;;;;;;5087497;28;20087;-65
2023/06/25 11:50:26;;;;;;;6.28;3.70;;;29.90;69.30;;;;;;5057079;28;20093;-65
2023/06/25 11:52:53;;;;;;;7.22;4.00;;;29.90;69.30;;;;;;5050091;28;20109;-65
2023/06/25 11:55:21;;;;;;;6.38;4.57;;;30.00;69.60;;;;;;5068103;28;20043;-65
2023/06/25 11:57:48;;;;;;;7.70;4.43;;;30.00;69.80;;;;;;5050412;28;20052;-65
2023/06/25 12:00:14;;;;;;;6.30;4.10;;;30.10;69.10;;;;;;5061404;28;20033;-65
2023/06/25 12:02:40;;;;;;;6.00;3.65;;;30.30;68.90;;;;;;5042427;28;20048;-65
2023/06/25 12:05:06;;;;;;;7.57;4.25;;;30.30;68.30;;;;;;5035378;28;20037;-65
2023/06/25 12:07:32;;;;;;;6.95;4.40;;;30.40;68.10;;;;;;5052100;28;20615;-65
2023/06/25 12:09:58;;;;;;;6.10;3.65;;;30.50;67.60;;;;;;5034960;28;20076;-65
2023/06/25 12:12:23;;;;;;;7.60;4.38;;;30.60;66.90;;;;;;5034958;28;20083;-65
2023/06/25 12:14:49;;;;;;;5.72;3.88;;;30.50;65.30;;;;;;5052069;28;20044;-65
2023/06/25 12:17:15;;;;;;;6.47;4.05;;;30.50;64.60;;;;;;5052803;28;20041;-65
2023/06/25 12:19:41;;;;;;;6.57;3.63;;;30.60;64.60;;;;;;5039050;28;20048;-65
2023/06/25 12:22:07;;;;;;;6.57;4.55;;;30.70;65.10;;;;;;5047334;28;20112;-65
2023/06/25 12:24:33;;;;;;;7.13;3.80;;;30.80;63.30;;;;;;5052346;28;20123;-65
2023/06/25 12:26:59;;;;;;;6.22;4.43;;;30.80;63.70;;;;;;5052611;28;20029;-65
2023/06/25 12:29:24;;;;;;;5.85;3.88;;;30.80;62.60;;;;;;5034951;28;20055;-65
2023/06/25 12:31:50;;;;;;;7.97;4.43;;;30.80;62.30;;;;;;5038166;28;20091;-65
2023/06/25 12:34:16;;;;;;;5.90;4.22;;;30.80;61.50;;;;;;5052404;28;20080;-65